createdAt,value
2018-07-03T00:00:14.559Z,13.21
2018-07-03T00:01:14.711Z,13.22
2018-07-03T00:02:14.863Z,13.07
2018-07-03T00:03:15.017Z,13.03
2018-07-03T00:04:15.169Z,13.04
2018-07-03T00:05:15.321Z,13.12
2018-07-03T00:06:15.473Z,13.03
2018-07-03T00:07:15.627Z,12.95
2018-07-03T00:08:15.781Z,12.95
2018-07-03T00:09:15.934Z,12.88
2018-07-03T00:10:16.085Z,12.84
2018-07-03T00:11:16.240Z,12.75
2018-07-03T00:12:16.396Z,12.71
2018-07-03T00:13:16.549Z,12.71
2018-07-03T00:14:16.702Z,12.70
2018-07-03T00:15:16.856Z,12.77
2018-07-03T00:16:17.009Z,12.74
2018-07-03T00:17:17.180Z,12.71
2018-07-03T00:18:17.337Z,12.67
2018-07-03T00:19:17.489Z,12.69
2018-07-03T00:20:17.644Z,12.71
2018-07-03T00:21:17.795Z,12.70
2018-07-03T00:22:17.952Z,12.69
2018-07-03T00:23:18.103Z,12.74
2018-07-03T00:24:18.253Z,12.74
2018-07-03T00:25:18.417Z,12.63
2018-07-03T00:26:18.561Z,12.60
2018-07-03T00:27:18.714Z,12.57
2018-07-03T00:28:18.868Z,12.57
2018-07-03T00:29:19.021Z,12.63
2018-07-03T00:30:19.171Z,12.56
2018-07-03T00:31:19.323Z,12.49
2018-07-03T00:32:19.474Z,12.45
2018-07-03T00:33:19.628Z,12.51
2018-07-03T00:34:19.778Z,12.49
2018-07-03T00:35:19.930Z,12.46
2018-07-03T00:36:20.086Z,12.44
2018-07-03T00:37:20.235Z,12.44
2018-07-03T00:38:20.386Z,12.39
2018-07-03T00:39:20.536Z,12.45
2018-07-03T00:40:20.689Z,12.30
2018-07-03T00:41:20.842Z,12.31
2018-07-03T00:42:20.995Z,12.31
2018-07-03T00:43:21.144Z,12.26
2018-07-03T00:44:21.296Z,12.20
2018-07-03T00:45:21.449Z,12.30
2018-07-03T00:46:21.604Z,12.48
2018-07-03T00:47:21.753Z,12.41
2018-07-03T00:48:21.904Z,12.34
2018-07-03T00:49:22.056Z,12.31
2018-07-03T00:50:22.208Z,12.33
2018-07-03T00:51:22.359Z,12.26
2018-07-03T00:52:22.510Z,12.21
2018-07-03T00:53:22.663Z,12.16
2018-07-03T00:54:22.813Z,12.19
2018-07-03T00:55:22.967Z,12.20
2018-07-03T00:56:23.119Z,12.19
2018-07-03T00:57:23.272Z,12.13
2018-07-03T00:58:23.426Z,12.15
2018-07-03T00:59:23.573Z,12.04
2018-07-03T01:00:23.729Z,12.01
2018-07-03T01:01:23.880Z,12.02
2018-07-03T01:02:24.033Z,11.97
2018-07-03T01:03:24.185Z,11.99
2018-07-03T01:04:24.342Z,12.02
2018-07-03T01:05:24.486Z,12.01
2018-07-03T01:06:24.638Z,12.09
2018-07-03T01:07:24.791Z,12.11
2018-07-03T01:08:24.942Z,12.15
2018-07-03T01:09:25.094Z,12.20
2018-07-03T01:10:25.245Z,12.29
2018-07-03T01:11:25.394Z,12.16
2018-07-03T01:12:25.550Z,12.15
2018-07-03T01:13:25.701Z,12.11
2018-07-03T01:14:25.852Z,12.01
2018-07-03T01:15:26.005Z,12.08
2018-07-03T01:16:26.152Z,12.12
2018-07-03T01:17:26.304Z,12.06
2018-07-03T01:18:26.453Z,12.08
2018-07-03T01:19:26.607Z,12.11
2018-07-03T01:20:26.760Z,12.11
2018-07-03T01:21:26.909Z,12.15
2018-07-03T01:22:27.061Z,12.05
2018-07-03T01:23:27.214Z,11.93
2018-07-03T01:24:27.364Z,11.86
2018-07-03T01:25:27.517Z,11.89
2018-07-03T01:26:27.671Z,11.83
2018-07-03T01:27:27.822Z,11.85
2018-07-03T01:28:27.974Z,11.80
2018-07-03T01:29:28.126Z,11.71
2018-07-03T01:30:28.278Z,11.62
2018-07-03T01:31:28.432Z,11.61
2018-07-03T01:32:28.580Z,11.43
2018-07-03T01:33:28.732Z,11.39
2018-07-03T01:34:28.883Z,11.38
2018-07-03T01:35:29.036Z,11.27
2018-07-03T01:36:29.185Z,11.29
2018-07-03T01:37:29.338Z,11.25
2018-07-03T01:38:29.490Z,11.25
2018-07-03T01:39:29.642Z,11.21
2018-07-03T01:40:29.794Z,11.24
2018-07-03T01:41:29.944Z,11.20
2018-07-03T01:42:30.097Z,11.24
2018-07-03T01:43:30.249Z,11.24
2018-07-03T01:44:30.400Z,11.24
2018-07-03T01:45:30.551Z,11.28
2018-07-03T01:46:30.701Z,11.20
2018-07-03T01:47:30.853Z,11.17
2018-07-03T01:48:31.003Z,11.16
2018-07-03T01:49:31.158Z,11.25
2018-07-03T01:50:31.314Z,11.29
2018-07-03T01:51:31.464Z,11.24
2018-07-03T01:52:31.616Z,11.24
2018-07-03T01:53:31.767Z,11.24
2018-07-03T01:54:31.918Z,11.14
2018-07-03T01:55:32.070Z,11.29
2018-07-03T01:56:32.222Z,11.14
2018-07-03T01:57:32.375Z,11.24
2018-07-03T01:58:32.528Z,11.24
2018-07-03T01:59:32.676Z,11.17
2018-07-03T02:00:32.825Z,11.25
2018-07-03T02:01:32.979Z,11.14
2018-07-03T02:02:33.129Z,10.98
2018-07-03T02:03:33.281Z,10.92
2018-07-03T02:04:33.431Z,11.01
2018-07-03T02:05:33.580Z,11.03
2018-07-03T02:06:33.740Z,11.01
2018-07-03T02:07:33.890Z,11.14
2018-07-03T02:08:34.040Z,11.07
2018-07-03T02:09:34.190Z,11.29
2018-07-03T02:10:34.343Z,11.25
2018-07-03T02:11:34.491Z,11.25
2018-07-03T02:12:34.637Z,11.14
2018-07-03T02:13:34.787Z,11.11
2018-07-03T02:14:34.939Z,11.27
2018-07-03T02:15:35.091Z,11.17
2018-07-03T02:16:35.243Z,11.01
2018-07-03T02:17:35.391Z,10.84
2018-07-03T02:18:35.924Z,10.80
2018-07-03T02:19:35.702Z,10.96
2018-07-03T02:20:35.856Z,10.81
2018-07-03T02:21:36.003Z,10.80
2018-07-03T02:22:36.157Z,10.73
2018-07-03T02:23:36.339Z,10.63
2018-07-03T02:24:36.462Z,10.68
2018-07-03T02:25:36.635Z,10.53
2018-07-03T02:26:36.786Z,10.55
2018-07-03T02:27:36.938Z,10.59
2018-07-03T02:28:37.091Z,10.53
2018-07-03T02:29:37.242Z,10.56
2018-07-03T02:30:37.396Z,10.55
2018-07-03T02:31:37.546Z,10.60
2018-07-03T02:32:37.714Z,10.63
2018-07-03T02:33:37.865Z,10.47
2018-07-03T02:34:38.016Z,10.60
2018-07-03T02:35:38.168Z,10.71
2018-07-03T02:36:38.318Z,10.70
2018-07-03T02:37:38.469Z,10.73
2018-07-03T02:38:38.626Z,10.74
2018-07-03T02:39:38.769Z,10.65
2018-07-03T02:40:38.930Z,10.71
2018-07-03T02:41:39.080Z,10.71
2018-07-03T02:42:39.231Z,10.81
2018-07-03T02:43:39.380Z,10.71
2018-07-03T02:44:39.534Z,10.60
2018-07-03T02:45:39.690Z,10.59
2018-07-03T02:46:39.844Z,10.55
2018-07-03T02:47:39.995Z,10.70
2018-07-03T02:48:40.145Z,10.68
2018-07-03T02:49:40.297Z,10.74
2018-07-03T02:50:40.450Z,10.68
2018-07-03T02:51:40.597Z,10.63
2018-07-03T02:52:40.749Z,10.66
2018-07-03T02:53:40.903Z,10.71
2018-07-03T02:54:41.053Z,10.68
2018-07-03T02:55:41.207Z,10.71
2018-07-03T02:56:41.359Z,10.65
2018-07-03T02:57:41.510Z,10.62
2018-07-03T02:58:41.660Z,10.46
2018-07-03T02:59:41.813Z,10.43
2018-07-03T03:00:41.963Z,10.51
2018-07-03T03:01:42.113Z,10.43
2018-07-03T03:02:42.265Z,10.44
2018-07-03T03:03:42.421Z,10.44
2018-07-03T03:04:42.576Z,10.37
2018-07-03T03:05:42.722Z,10.32
2018-07-03T03:06:42.876Z,10.33
2018-07-03T03:07:43.026Z,10.30
2018-07-03T03:08:43.177Z,10.25
2018-07-03T03:09:43.330Z,10.25
2018-07-03T03:10:43.479Z,10.14
2018-07-03T03:11:43.632Z,10.28
2018-07-03T03:12:43.783Z,10.10
2018-07-03T03:13:43.932Z,10.06
2018-07-03T03:14:44.085Z,10.10
2018-07-03T03:15:44.238Z,10.19
2018-07-03T03:16:44.388Z,10.10
2018-07-03T03:17:44.540Z,10.22
2018-07-03T03:18:44.693Z,10.18
2018-07-03T03:19:44.842Z,10.24
2018-07-03T03:20:44.995Z,10.25
2018-07-03T03:21:45.148Z,10.32
2018-07-03T03:22:45.295Z,10.33
2018-07-03T03:23:45.443Z,10.19
2018-07-03T03:24:45.596Z,10.17
2018-07-03T03:25:45.758Z,10.25
2018-07-03T03:26:45.897Z,10.22
2018-07-03T03:27:46.048Z,10.21
2018-07-03T03:28:46.199Z,10.06
2018-07-03T03:29:46.354Z,10.07
2018-07-03T03:30:46.503Z,10.07
2018-07-03T03:31:46.654Z,10.18
2018-07-03T03:32:46.808Z,10.09
2018-07-03T03:33:46.960Z,9.96
2018-07-03T03:34:47.110Z,10.03
2018-07-03T03:35:47.261Z,9.96
2018-07-03T03:36:47.413Z,10.07
2018-07-03T03:37:47.565Z,10.09
2018-07-03T03:38:47.719Z,10.19
2018-07-03T03:39:47.869Z,10.24
2018-07-03T03:40:48.025Z,10.18
2018-07-03T03:41:48.173Z,10.10
2018-07-03T03:42:48.322Z,10.22
2018-07-03T03:43:48.473Z,10.26
2018-07-03T03:44:48.625Z,10.30
2018-07-03T03:45:48.775Z,10.34
2018-07-03T03:46:48.930Z,10.43
2018-07-03T03:47:49.081Z,10.36
2018-07-03T03:48:49.232Z,10.39
2018-07-03T03:49:49.382Z,10.44
2018-07-03T03:50:49.538Z,10.39
2018-07-03T03:51:49.691Z,10.43
2018-07-03T03:52:49.839Z,10.32
2018-07-03T03:53:50.062Z,10.30
2018-07-03T03:54:50.144Z,10.22
2018-07-03T03:55:50.294Z,10.22
2018-07-03T03:56:50.444Z,10.17
2018-07-03T03:57:50.596Z,10.24
2018-07-03T03:58:50.748Z,10.33
2018-07-03T03:59:50.899Z,10.26
2018-07-03T04:00:51.057Z,10.42
2018-07-03T04:01:51.204Z,10.46
2018-07-03T04:02:51.355Z,10.46
2018-07-03T04:03:51.513Z,10.43
2018-07-03T04:04:51.656Z,10.40
2018-07-03T04:05:51.800Z,10.52
2018-07-03T04:06:51.951Z,10.68
2018-07-03T04:07:52.105Z,10.68
2018-07-03T04:08:52.256Z,10.60
2018-07-03T04:09:52.404Z,10.56
2018-07-03T04:10:52.560Z,10.56
2018-07-03T04:11:52.716Z,10.66
2018-07-03T04:12:52.865Z,10.56
2018-07-03T04:13:53.018Z,10.56
2018-07-03T04:14:53.168Z,10.60
2018-07-03T04:15:53.320Z,10.66
2018-07-03T04:16:53.473Z,10.68
2018-07-03T04:17:53.623Z,10.60
2018-07-03T04:18:53.774Z,10.76
2018-07-03T04:19:53.931Z,10.62
2018-07-03T04:20:54.078Z,10.74
2018-07-03T04:21:54.231Z,10.76
2018-07-03T04:22:54.385Z,10.70
2018-07-03T04:23:54.536Z,10.76
2018-07-03T04:24:54.685Z,10.71
2018-07-03T04:25:54.836Z,10.70
2018-07-03T04:26:54.984Z,10.73
2018-07-03T04:27:55.137Z,10.78
2018-07-03T04:28:55.287Z,10.70
2018-07-03T04:29:55.460Z,10.84
2018-07-03T04:30:55.614Z,10.76
2018-07-03T04:31:55.762Z,10.94
2018-07-03T04:32:55.912Z,10.94
2018-07-03T04:33:56.159Z,11.01
2018-07-03T04:34:56.217Z,11.07
2018-07-03T04:35:56.367Z,11.20
2018-07-03T04:36:56.517Z,11.03
2018-07-03T04:37:56.670Z,11.29
2018-07-03T04:38:56.820Z,11.46
2018-07-03T04:39:56.972Z,11.50
2018-07-03T04:40:57.128Z,11.70
2018-07-03T04:41:57.279Z,12.01
2018-07-03T04:42:57.429Z,12.08
2018-07-03T04:43:57.585Z,12.19
2018-07-03T04:44:57.736Z,12.01
2018-07-03T04:45:57.891Z,11.86
2018-07-03T04:46:58.067Z,11.68
2018-07-03T04:47:58.191Z,11.78
2018-07-03T04:48:58.342Z,11.83
2018-07-03T04:49:58.498Z,11.83
2018-07-03T04:50:58.649Z,11.87
2018-07-03T04:51:58.798Z,11.96
2018-07-03T04:52:58.949Z,12.01
2018-07-03T04:53:59.103Z,11.99
2018-07-03T04:54:59.254Z,12.09
2018-07-03T04:55:59.406Z,12.06
2018-07-03T04:56:59.560Z,12.26
2018-07-03T04:57:59.712Z,12.31
2018-07-03T04:58:59.865Z,12.20
2018-07-03T05:00:00.025Z,12.29
2018-07-03T05:01:00.175Z,12.29
2018-07-03T05:02:00.324Z,12.42
2018-07-03T05:03:00.476Z,12.48
2018-07-03T05:04:00.628Z,12.44
2018-07-03T05:05:00.782Z,12.33
2018-07-03T05:06:00.937Z,12.44
2018-07-03T05:07:01.086Z,12.45
2018-07-03T05:08:01.236Z,12.54
2018-07-03T05:09:01.390Z,12.60
2018-07-03T05:10:01.609Z,12.49
2018-07-03T05:11:01.696Z,12.60
2018-07-03T05:12:01.850Z,12.60
2018-07-03T05:13:02.000Z,12.62
2018-07-03T05:14:02.152Z,12.66
2018-07-03T05:15:02.304Z,12.66
2018-07-03T05:16:02.456Z,12.64
2018-07-03T05:17:02.609Z,12.69
2018-07-03T05:18:02.762Z,12.79
2018-07-03T05:19:02.913Z,12.93
2018-07-03T05:20:03.068Z,12.87
2018-07-03T05:21:03.221Z,12.93
2018-07-03T05:22:03.371Z,12.95
2018-07-03T05:23:03.531Z,12.97
2018-07-03T05:24:03.682Z,13.17
2018-07-03T05:25:03.838Z,13.18
2018-07-03T05:26:03.989Z,13.20
2018-07-03T05:27:04.141Z,13.21
2018-07-03T05:28:04.296Z,13.21
2018-07-03T05:29:04.446Z,13.22
2018-07-03T05:30:04.599Z,13.37
2018-07-03T05:31:04.750Z,13.29
2018-07-03T05:32:04.904Z,13.52
2018-07-03T05:33:05.055Z,13.54
2018-07-03T05:34:05.207Z,13.47
2018-07-03T05:35:05.361Z,13.52
2018-07-03T05:36:05.515Z,13.55
2018-07-03T05:37:05.671Z,13.47
2018-07-03T05:38:05.825Z,13.56
2018-07-03T05:39:05.975Z,13.69
2018-07-03T05:40:06.130Z,13.76
2018-07-03T05:41:06.286Z,13.77
2018-07-03T05:42:06.438Z,13.76
2018-07-03T05:43:06.595Z,13.88
2018-07-03T05:44:06.744Z,13.79
2018-07-03T05:45:06.899Z,13.73
2018-07-03T05:46:07.059Z,13.89
2018-07-03T05:47:07.204Z,14.07
2018-07-03T05:48:07.361Z,14.04
2018-07-03T05:49:07.515Z,14.21
2018-07-03T05:50:07.670Z,14.13
2018-07-03T05:51:07.826Z,14.16
2018-07-03T05:52:07.976Z,14.16
2018-07-03T05:53:08.132Z,14.29
2018-07-03T05:54:08.283Z,14.32
2018-07-03T05:55:08.438Z,14.38
2018-07-03T05:56:08.614Z,14.42
2018-07-03T05:57:08.745Z,14.42
2018-07-03T05:58:08.904Z,14.52
2018-07-03T05:59:09.051Z,14.57
2018-07-03T06:00:09.205Z,14.57
2018-07-03T06:01:09.358Z,14.67
2018-07-03T06:02:09.513Z,14.81
2018-07-03T06:03:09.665Z,14.88
2018-07-03T06:04:09.839Z,14.91
2018-07-03T06:05:09.991Z,14.84
2018-07-03T06:06:10.148Z,14.83
2018-07-03T06:07:10.302Z,14.86
2018-07-03T06:08:10.456Z,14.93
2018-07-03T06:09:10.620Z,15.05
2018-07-03T06:10:10.765Z,15.08
2018-07-03T06:11:10.907Z,15.31
2018-07-03T06:12:11.093Z,15.38
2018-07-03T06:13:11.373Z,15.49
2018-07-03T06:14:11.417Z,15.59
2018-07-03T06:15:11.554Z,15.67
2018-07-03T06:16:11.710Z,15.78
2018-07-03T06:17:11.864Z,15.81
2018-07-03T06:18:12.022Z,15.89
2018-07-03T06:19:12.176Z,15.99
2018-07-03T06:20:12.330Z,15.96
2018-07-03T06:21:12.568Z,15.89
2018-07-03T06:22:12.643Z,16.09
2018-07-03T06:23:12.809Z,16.09
2018-07-03T06:24:12.954Z,15.94
2018-07-03T06:25:13.107Z,16.03
2018-07-03T06:26:13.263Z,15.96
2018-07-03T06:27:13.420Z,16.01
2018-07-03T06:28:13.571Z,16.09
2018-07-03T06:29:13.726Z,16.04
2018-07-03T06:30:13.880Z,16.14
2018-07-03T06:31:14.038Z,16.27
2018-07-03T06:32:14.191Z,16.33
2018-07-03T06:33:14.348Z,16.44
2018-07-03T06:34:14.502Z,16.50
2018-07-03T06:35:14.655Z,16.67
2018-07-03T06:36:14.808Z,16.75
2018-07-03T06:37:14.979Z,16.80
2018-07-03T06:38:15.115Z,17.03
2018-07-03T06:39:15.271Z,16.98
2018-07-03T06:40:15.428Z,17.04
2018-07-03T06:41:15.583Z,17.18
2018-07-03T06:42:15.737Z,17.08
2018-07-03T06:43:15.893Z,17.18
2018-07-03T06:44:16.048Z,17.26
2018-07-03T06:45:16.203Z,17.32
2018-07-03T06:46:16.358Z,17.51
2018-07-03T06:47:16.536Z,17.63
2018-07-03T06:48:16.666Z,17.70
2018-07-03T06:49:16.823Z,17.73
2018-07-03T06:50:16.981Z,17.84
2018-07-03T06:51:17.129Z,17.95
2018-07-03T06:52:17.283Z,17.87
2018-07-03T06:53:17.439Z,18.04
2018-07-03T06:54:17.597Z,17.94
2018-07-03T06:55:17.748Z,18.10
2018-07-03T06:56:17.903Z,18.18
2018-07-03T06:57:18.061Z,18.21
2018-07-03T06:58:18.217Z,18.37
2018-07-03T06:59:18.375Z,18.43
2018-07-03T07:00:18.525Z,18.54
2018-07-03T07:01:18.684Z,18.54
2018-07-03T07:02:18.836Z,18.73
2018-07-03T07:03:18.992Z,18.73
2018-07-03T07:04:19.147Z,18.77
2018-07-03T07:05:19.303Z,18.76
2018-07-03T07:06:19.460Z,18.74
2018-07-03T07:07:19.614Z,18.87
2018-07-03T07:08:19.768Z,18.82
2018-07-03T07:09:20.014Z,19.05
2018-07-03T07:10:20.082Z,19.17
2018-07-03T07:11:20.237Z,19.17
2018-07-03T07:12:20.393Z,19.21
2018-07-03T07:13:20.546Z,19.32
2018-07-03T07:14:20.704Z,19.46
2018-07-03T07:15:20.860Z,19.58
2018-07-03T07:16:21.015Z,19.60
2018-07-03T07:17:21.172Z,19.65
2018-07-03T07:18:21.328Z,19.73
2018-07-03T07:19:21.483Z,19.60
2018-07-03T07:20:21.642Z,19.65
2018-07-03T07:21:21.799Z,19.70
2018-07-03T07:22:21.954Z,19.73
2018-07-03T07:23:22.156Z,19.84
2018-07-03T07:24:22.267Z,19.90
2018-07-03T07:25:22.422Z,19.90
2018-07-03T07:26:22.580Z,20.05
2018-07-03T07:27:22.736Z,19.97
2018-07-03T07:28:22.893Z,20.05
2018-07-03T07:29:23.047Z,20.10
2018-07-03T07:30:23.203Z,20.15
2018-07-03T07:31:23.351Z,20.16
2018-07-03T07:32:23.505Z,20.24
2018-07-03T07:33:23.663Z,20.38
2018-07-03T07:34:23.817Z,20.50
2018-07-03T07:35:23.979Z,20.58
2018-07-03T07:36:24.135Z,20.51
2018-07-03T07:37:24.290Z,20.77
2018-07-03T07:38:24.445Z,20.83
2018-07-03T07:39:24.603Z,20.80
2018-07-03T07:40:24.761Z,20.83
2018-07-03T07:41:24.917Z,21.04
2018-07-03T07:42:25.078Z,21.01
2018-07-03T07:43:25.230Z,21.08
2018-07-03T07:44:25.386Z,21.17
2018-07-03T07:45:25.540Z,21.14
2018-07-03T20:05:23.167Z,22.22
2018-07-03T20:06:23.326Z,22.06
2018-07-03T20:07:23.514Z,21.82
2018-07-03T20:08:23.642Z,21.85
2018-07-03T20:09:23.802Z,21.85
2018-07-03T20:10:23.961Z,21.88
2018-07-03T20:11:24.117Z,22.01
2018-07-03T20:12:24.274Z,21.97
2018-07-03T20:13:24.438Z,22.06
2018-07-03T20:14:24.593Z,22.10
2018-07-03T20:15:24.754Z,22.16
2018-07-03T20:16:24.909Z,22.12
2018-07-03T20:17:25.066Z,22.01
2018-07-03T20:18:25.225Z,21.98
2018-07-03T20:19:25.385Z,21.95
2018-07-03T20:20:25.543Z,21.76
2018-07-03T20:21:25.698Z,21.81
2018-07-03T20:22:25.859Z,21.81
2018-07-03T20:23:26.016Z,21.63
2018-07-03T20:24:26.199Z,21.54
2018-07-03T20:25:26.362Z,21.44
2018-07-03T20:26:26.521Z,21.34
2018-07-03T20:27:26.682Z,21.32
2018-07-03T20:28:26.836Z,21.21
2018-07-03T20:29:26.997Z,21.05
2018-07-03T20:30:27.153Z,20.91
2018-07-03T20:31:27.311Z,20.86
2018-07-03T20:32:27.468Z,20.68
2018-07-03T20:33:27.627Z,20.68
2018-07-03T20:34:27.784Z,20.66
2018-07-03T20:35:27.941Z,20.66
2018-07-03T20:36:28.098Z,20.80
2018-07-03T20:37:28.262Z,20.69
2018-07-03T20:38:28.417Z,20.87
2018-07-03T20:39:28.575Z,20.83
2018-07-03T20:40:28.733Z,20.69
2018-07-03T20:41:28.889Z,20.69
2018-07-03T20:42:29.104Z,20.80
2018-07-03T20:43:29.205Z,20.71
2018-07-03T20:44:29.362Z,20.80
2018-07-03T20:45:29.518Z,20.66
2018-07-03T20:46:29.677Z,20.76
2018-07-03T20:47:29.839Z,20.77
2018-07-03T20:48:29.993Z,20.74
2018-07-03T20:49:30.150Z,20.71
2018-07-03T20:50:30.306Z,20.61
2018-07-03T20:51:30.465Z,20.54
2018-07-03T20:52:30.621Z,20.54
2018-07-03T20:53:30.780Z,20.42
2018-07-03T20:54:30.936Z,20.42
2018-07-03T20:55:31.093Z,20.35
2018-07-03T20:56:31.253Z,20.30
2018-07-03T20:57:31.407Z,20.23
2018-07-03T20:58:31.567Z,20.16
2018-07-03T20:59:31.721Z,20.12
2018-07-03T21:00:31.879Z,20.06
2018-07-03T21:01:32.039Z,20.10
2018-07-03T21:02:32.197Z,20.08
2018-07-03T21:03:32.355Z,20.00
2018-07-03T21:04:32.517Z,19.97
2018-07-03T21:05:32.702Z,19.88
2018-07-03T21:06:32.828Z,20.00
2018-07-03T21:07:32.995Z,19.94
2018-07-03T21:08:33.151Z,19.87
2018-07-03T21:09:33.315Z,20.12
2018-07-03T21:10:33.511Z,19.98
2018-07-03T21:11:33.673Z,20.08
2018-07-03T21:12:33.779Z,20.05
2018-07-03T21:13:33.935Z,20.03
2018-07-03T21:14:34.092Z,19.98
2018-07-03T21:15:34.247Z,19.91
2018-07-03T21:16:34.405Z,19.87
2018-07-03T21:17:34.561Z,19.78
2018-07-03T21:18:34.715Z,19.86
2018-07-03T21:19:34.874Z,19.78
2018-07-03T21:20:35.032Z,19.72
2018-07-03T21:21:35.189Z,19.69
2018-07-03T21:22:35.345Z,19.48
2018-07-03T21:23:35.500Z,19.40
2018-07-03T21:24:35.658Z,19.50
2018-07-03T21:25:35.816Z,19.42
2018-07-03T21:26:35.970Z,19.39
2018-07-03T21:27:36.129Z,19.39
2018-07-03T21:28:36.293Z,19.35
2018-07-03T21:29:36.438Z,19.35
2018-07-03T21:30:36.593Z,19.39
2018-07-03T21:31:36.766Z,19.40
2018-07-03T21:32:36.908Z,19.40
2018-07-03T21:33:37.062Z,19.31
2018-07-03T21:34:37.221Z,19.14
2018-07-03T21:35:37.376Z,19.10
2018-07-03T21:36:37.532Z,19.18
2018-07-03T21:37:37.688Z,19.10
2018-07-03T21:38:37.871Z,18.99
2018-07-03T21:39:37.999Z,19.08
2018-07-03T21:40:38.156Z,18.99
2018-07-03T21:41:38.311Z,19.01
2018-07-03T21:42:38.471Z,18.91
2018-07-03T21:43:38.628Z,18.98
2018-07-03T21:44:38.794Z,18.95
2018-07-03T21:45:38.949Z,18.92
2018-07-03T21:46:39.105Z,18.86
2018-07-03T21:47:39.263Z,18.84
2018-07-03T21:48:39.414Z,18.79
2018-07-03T21:49:39.570Z,18.80
2018-07-03T21:50:39.727Z,18.84
2018-07-03T21:51:39.882Z,18.92
2018-07-03T21:52:40.043Z,18.86
2018-07-03T21:53:40.194Z,18.90
2018-07-03T21:54:40.350Z,18.87
2018-07-03T21:55:40.505Z,18.90
2018-07-03T21:56:40.661Z,18.98
2018-07-03T21:57:40.821Z,19.05
2018-07-03T21:58:40.972Z,19.10
2018-07-03T21:59:41.127Z,19.14
2018-07-03T22:00:41.283Z,19.06
2018-07-03T22:01:41.440Z,18.77
2018-07-03T22:02:41.595Z,18.72
2018-07-03T22:03:41.752Z,18.54
2018-07-03T22:04:41.907Z,18.46
2018-07-03T22:05:42.068Z,18.22
2018-07-03T22:06:42.216Z,18.24
2018-07-03T22:07:42.374Z,18.21
2018-07-03T22:08:42.525Z,18.04
2018-07-03T22:09:42.678Z,17.95
2018-07-03T22:10:42.836Z,17.95
2018-07-03T22:11:42.991Z,17.95
2018-07-03T22:12:43.146Z,17.88
2018-07-03T22:13:43.309Z,17.82
2018-07-03T22:14:43.460Z,17.74
2018-07-03T22:15:43.617Z,17.81
2018-07-03T22:16:43.773Z,17.71
2018-07-03T22:17:43.940Z,17.62
2018-07-03T22:18:44.083Z,17.59
2018-07-03T22:19:44.237Z,17.62
2018-07-03T22:20:44.394Z,17.62
2018-07-03T22:21:44.610Z,17.53
2018-07-03T22:22:44.707Z,17.57
2018-07-03T22:23:44.860Z,17.53
2018-07-03T22:24:45.018Z,17.43
2018-07-03T22:25:45.171Z,17.40
2018-07-03T22:26:45.329Z,17.36
2018-07-03T22:27:45.484Z,17.32
2018-07-03T22:28:45.637Z,17.32
2018-07-03T22:29:45.792Z,17.22
2018-07-03T22:30:45.946Z,17.29
2018-07-03T22:31:46.100Z,17.23
2018-07-03T22:32:46.253Z,17.23
2018-07-03T22:33:46.410Z,17.14
2018-07-03T22:34:46.563Z,17.13
2018-07-03T22:35:46.718Z,17.17
2018-07-03T22:36:46.873Z,17.22
2018-07-03T22:37:47.026Z,17.13
2018-07-03T22:38:47.275Z,17.10
2018-07-03T22:39:47.430Z,17.06
2018-07-03T22:40:47.488Z,17.04
2018-07-03T22:41:47.642Z,17.04
2018-07-03T22:42:47.797Z,16.93
2018-07-03T22:43:47.952Z,16.89
2018-07-03T22:44:48.105Z,16.81
2018-07-03T22:45:48.259Z,16.92
2018-07-03T22:46:48.413Z,16.99
2018-07-03T22:47:48.568Z,16.93
2018-07-03T22:48:48.720Z,16.88
2018-07-03T22:49:48.876Z,16.90
2018-07-03T22:50:49.029Z,16.80
2018-07-03T22:51:49.190Z,16.80
2018-07-03T22:52:49.379Z,16.75
2018-07-03T22:53:49.492Z,16.70
2018-07-03T22:54:49.649Z,16.70
2018-07-03T22:55:49.811Z,16.80
2018-07-03T22:56:49.962Z,16.81
2018-07-03T22:57:50.113Z,16.77
2018-07-03T22:58:50.269Z,16.70
2018-07-03T22:59:50.424Z,16.67
2018-07-03T23:00:50.577Z,16.75
2018-07-03T23:01:50.731Z,16.68
2018-07-03T23:02:50.886Z,16.73
2018-07-03T23:03:51.038Z,16.71
2018-07-03T23:04:51.194Z,16.73
2018-07-03T23:05:51.349Z,16.60
2018-07-03T23:06:51.505Z,16.71
2018-07-03T23:07:51.719Z,16.60
2018-07-03T23:08:51.815Z,16.58
2018-07-03T23:09:51.971Z,16.52
2018-07-03T23:10:52.123Z,16.48
2018-07-03T23:11:52.278Z,16.48
2018-07-03T23:12:52.431Z,16.44
2018-07-03T23:13:52.586Z,16.37
2018-07-03T23:14:52.738Z,16.41
2018-07-03T23:15:52.892Z,16.40
2018-07-03T23:16:53.045Z,16.18
2018-07-03T23:17:53.199Z,16.12
2018-07-03T23:18:53.353Z,16.14
2018-07-03T23:19:53.506Z,15.93
2018-07-03T23:20:53.664Z,15.97
2018-07-03T23:21:53.815Z,15.97
2018-07-03T23:22:53.969Z,15.93
2018-07-03T23:23:54.125Z,15.85
2018-07-03T23:24:54.279Z,15.89
2018-07-03T23:25:54.433Z,15.88
2018-07-03T23:26:54.588Z,15.81
2018-07-03T23:27:54.742Z,15.89
2018-07-03T23:28:54.893Z,15.88
2018-07-03T23:29:55.046Z,15.86
2018-07-03T23:30:55.199Z,15.85
2018-07-03T23:31:55.353Z,15.74
2018-07-03T23:32:55.507Z,15.63
2018-07-03T23:33:55.666Z,15.60
2018-07-03T23:34:55.817Z,15.61
2018-07-03T23:35:55.971Z,15.54
2018-07-03T23:36:56.125Z,15.52
2018-07-03T23:37:56.277Z,15.54
2018-07-03T23:38:56.432Z,15.46
2018-07-03T23:39:56.586Z,15.42
2018-07-03T23:40:56.741Z,15.46
2018-07-03T23:41:56.899Z,15.31
2018-07-03T23:42:57.048Z,15.30
2018-07-03T23:43:57.202Z,15.39
2018-07-03T23:44:57.357Z,15.31
2018-07-03T23:45:57.511Z,15.31
2018-07-03T23:46:57.665Z,15.26
2018-07-03T23:47:57.818Z,15.21
2018-07-03T23:48:57.973Z,15.19
2018-07-03T23:49:58.124Z,15.20
2018-07-03T23:50:58.278Z,15.13
2018-07-03T23:51:58.434Z,15.23
2018-07-03T23:52:58.585Z,15.09
2018-07-03T23:53:58.739Z,15.13
2018-07-03T23:54:58.893Z,15.12
2018-07-03T23:55:59.045Z,15.09
2018-07-03T23:56:59.200Z,15.15
2018-07-03T23:57:59.354Z,15.11
2018-07-03T23:58:59.505Z,14.98
2018-07-03T23:59:59.660Z,14.94
